sensor_id;sensor_type;location;lat;lon;timestamp;P1;durP1;ratioP1;P2;durP2;ratioP2
84247;SDS011;74387;44.536;18.530;2023-12-07T00:01:42;91.50;;;41.00;;
84247;SDS011;74387;44.536;18.530;2023-12-07T00:04:08;82.77;;;37.50;;
84247;SDS011;74387;44.536;18.530;2023-12-07T00:06:34;97.17;;;40.93;;
84247;SDS011;74387;44.536;18.530;2023-12-07T00:08:59;84.90;;;35.53;;
84247;SDS011;74387;44.536;18.530;2023-12-07T00:11:26;76.43;;;33.73;;
84247;SDS011;74387;44.536;18.530;2023-12-07T00:13:52;89.20;;;38.60;;
84247;SDS011;74387;44.536;18.530;2023-12-07T00:16:18;86.20;;;38.53;;
84247;SDS011;74387;44.536;18.530;2023-12-07T00:18:43;88.90;;;39.90;;
84247;SDS011;74387;44.536;18.530;2023-12-07T00:21:09;71.07;;;33.13;;
84247;SDS011;74387;44.536;18.530;2023-12-07T00:23:35;79.87;;;35.83;;
84247;SDS011;74387;44.536;18.530;2023-12-07T00:26:05;68.23;;;32.97;;
84247;SDS011;74387;44.536;18.530;2023-12-07T00:28:31;72.03;;;32.70;;
84247;SDS011;74387;44.536;18.530;2023-12-07T00:30:56;64.80;;;30.67;;
84247;SDS011;74387;44.536;18.530;2023-12-07T00:33:22;64.67;;;30.80;;
84247;SDS011;74387;44.536;18.530;2023-12-07T00:35:48;67.17;;;31.40;;
84247;SDS011;74387;44.536;18.530;2023-12-07T00:38:14;65.67;;;30.53;;
84247;SDS011;74387;44.536;18.530;2023-12-07T00:40:40;60.27;;;29.00;;
84247;SDS011;74387;44.536;18.530;2023-12-07T00:43:06;45.73;;;24.23;;
84247;SDS011;74387;44.536;18.530;2023-12-07T00:45:32;54.57;;;26.17;;
84247;SDS011;74387;44.536;18.530;2023-12-07T00:47:58;62.10;;;29.57;;
84247;SDS011;74387;44.536;18.530;2023-12-07T00:50:24;54.57;;;27.13;;
84247;SDS011;74387;44.536;18.530;2023-12-07T00:52:50;51.20;;;25.17;;
84247;SDS011;74387;44.536;18.530;2023-12-07T00:55:16;45.90;;;22.70;;
84247;SDS011;74387;44.536;18.530;2023-12-07T00:57:41;35.13;;;18.37;;
84247;SDS011;74387;44.536;18.530;2023-12-07T01:00:07;46.43;;;22.67;;
84247;SDS011;74387;44.536;18.530;2023-12-07T01:02:33;30.00;;;15.93;;
84247;SDS011;74387;44.536;18.530;2023-12-07T01:05:00;38.63;;;19.27;;
84247;SDS011;74387;44.536;18.530;2023-12-07T01:07:25;31.87;;;16.10;;
84247;SDS011;74387;44.536;18.530;2023-12-07T01:09:52;25.37;;;14.50;;
84247;SDS011;74387;44.536;18.530;2023-12-07T01:12:17;31.40;;;15.97;;
84247;SDS011;74387;44.536;18.530;2023-12-07T01:14:43;28.07;;;14.87;;
84247;SDS011;74387;44.536;18.530;2023-12-07T01:17:09;33.37;;;16.30;;
84247;SDS011;74387;44.536;18.530;2023-12-07T01:19:35;32.40;;;15.80;;
84247;SDS011;74387;44.536;18.530;2023-12-07T01:22:00;33.97;;;16.60;;
84247;SDS011;74387;44.536;18.530;2023-12-07T01:24:26;35.53;;;17.70;;
84247;SDS011;74387;44.536;18.530;2023-12-07T01:26:52;36.63;;;17.00;;
84247;SDS011;74387;44.536;18.530;2023-12-07T01:29:18;33.77;;;18.57;;
84247;SDS011;74387;44.536;18.530;2023-12-07T01:31:44;31.13;;;17.10;;
84247;SDS011;74387;44.536;18.530;2023-12-07T01:34:10;39.97;;;18.43;;
84247;SDS011;74387;44.536;18.530;2023-12-07T01:36:36;42.27;;;21.30;;
84247;SDS011;74387;44.536;18.530;2023-12-07T01:39:01;44.90;;;22.20;;
84247;SDS011;74387;44.536;18.530;2023-12-07T01:41:27;39.10;;;18.57;;
84247;SDS011;74387;44.536;18.530;2023-12-07T01:43:53;40.17;;;18.07;;
84247;SDS011;74387;44.536;18.530;2023-12-07T01:46:19;37.23;;;18.87;;
84247;SDS011;74387;44.536;18.530;2023-12-07T01:48:47;37.63;;;19.80;;
84247;SDS011;74387;44.536;18.530;2023-12-07T01:51:14;35.90;;;19.50;;
84247;SDS011;74387;44.536;18.530;2023-12-07T01:53:41;46.60;;;22.80;;
84247;SDS011;74387;44.536;18.530;2023-12-07T01:56:07;41.60;;;22.97;;
84247;SDS011;74387;44.536;18.530;2023-12-07T01:58:34;45.67;;;23.97;;
84247;SDS011;74387;44.536;18.530;2023-12-07T02:01:00;46.60;;;25.03;;
84247;SDS011;74387;44.536;18.530;2023-12-07T02:03:27;50.03;;;23.57;;
84247;SDS011;74387;44.536;18.530;2023-12-07T02:05:55;47.85;;;23.88;;
84247;SDS011;74387;44.536;18.530;2023-12-07T02:08:22;48.97;;;23.60;;
84247;SDS011;74387;44.536;18.530;2023-12-07T02:10:48;45.90;;;22.17;;
84247;SDS011;74387;44.536;18.530;2023-12-07T02:13:14;50.43;;;23.10;;
84247;SDS011;74387;44.536;18.530;2023-12-07T02:15:40;42.77;;;20.40;;
84247;SDS011;74387;44.536;18.530;2023-12-07T02:23:34;46.10;;;21.70;;
84247;SDS011;74387;44.536;18.530;2023-12-07T02:26:08;51.25;;;23.48;;
84247;SDS011;74387;44.536;18.530;2023-12-07T02:28:36;56.90;;;24.73;;
84247;SDS011;74387;44.536;18.530;2023-12-07T02:31:02;52.50;;;22.47;;
84247;SDS011;74387;44.536;18.530;2023-12-07T02:33:28;39.80;;;19.93;;
84247;SDS011;74387;44.536;18.530;2023-12-07T02:35:54;36.70;;;19.77;;
84247;SDS011;74387;44.536;18.530;2023-12-07T02:38:20;40.47;;;20.87;;
84247;SDS011;74387;44.536;18.530;2023-12-07T02:40:51;50.90;;;22.30;;
84247;SDS011;74387;44.536;18.530;2023-12-07T02:43:19;50.03;;;21.63;;
84247;SDS011;74387;44.536;18.530;2023-12-07T02:45:46;52.03;;;24.53;;
84247;SDS011;74387;44.536;18.530;2023-12-07T02:48:12;43.10;;;22.73;;
84247;SDS011;74387;44.536;18.530;2023-12-07T02:50:37;42.60;;;22.40;;
84247;SDS011;74387;44.536;18.530;2023-12-07T02:53:03;34.67;;;18.33;;
84247;SDS011;74387;44.536;18.530;2023-12-07T02:55:29;38.70;;;19.43;;
84247;SDS011;74387;44.536;18.530;2023-12-07T02:57:55;53.17;;;20.50;;
84247;SDS011;74387;44.536;18.530;2023-12-07T03:00:21;36.13;;;17.77;;
84247;SDS011;74387;44.536;18.530;2023-12-07T03:02:47;36.00;;;16.57;;
84247;SDS011;74387;44.536;18.530;2023-12-07T03:05:13;41.13;;;19.13;;
84247;SDS011;74387;44.536;18.530;2023-12-07T03:07:39;39.80;;;19.57;;
84247;SDS011;74387;44.536;18.530;2023-12-07T03:10:05;44.77;;;19.73;;
84247;SDS011;74387;44.536;18.530;2023-12-07T03:12:31;49.83;;;22.53;;
84247;SDS011;74387;44.536;18.530;2023-12-07T03:14:57;49.23;;;21.43;;
84247;SDS011;74387;44.536;18.530;2023-12-07T03:17:22;42.13;;;20.60;;
84247;SDS011;74387;44.536;18.530;2023-12-07T03:19:48;37.70;;;18.23;;
84247;SDS011;74387;44.536;18.530;2023-12-07T03:22:14;32.87;;;17.17;;
84247;SDS011;74387;44.536;18.530;2023-12-07T03:24:40;31.10;;;14.87;;
84247;SDS011;74387;44.536;18.530;2023-12-07T03:27:11;28.23;;;16.13;;
84247;SDS011;74387;44.536;18.530;2023-12-07T03:29:37;34.30;;;17.03;;
84247;SDS011;74387;44.536;18.530;2023-12-07T03:32:03;30.77;;;15.20;;
84247;SDS011;74387;44.536;18.530;2023-12-07T03:34:29;33.57;;;15.37;;
84247;SDS011;74387;44.536;18.530;2023-12-07T03:36:55;30.13;;;15.77;;
84247;SDS011;74387;44.536;18.530;2023-12-07T03:39:20;29.00;;;16.00;;
84247;SDS011;74387;44.536;18.530;2023-12-07T03:41:50;27.63;;;15.17;;
84247;SDS011;74387;44.536;18.530;2023-12-07T03:44:16;31.33;;;16.43;;
84247;SDS011;74387;44.536;18.530;2023-12-07T03:46:42;30.67;;;15.40;;
84247;SDS011;74387;44.536;18.530;2023-12-07T03:49:08;33.60;;;16.23;;
84247;SDS011;74387;44.536;18.530;2023-12-07T03:51:34;39.63;;;18.87;;
84247;SDS011;74387;44.536;18.530;2023-12-07T03:54:02;39.57;;;17.27;;
84247;SDS011;74387;44.536;18.530;2023-12-07T03:56:29;46.63;;;19.83;;
84247;SDS011;74387;44.536;18.530;2023-12-07T03:58:56;45.70;;;19.90;;
84247;SDS011;74387;44.536;18.530;2023-12-07T04:01:27;47.87;;;18.90;;
84247;SDS011;74387;44.536;18.530;2023-12-07T04:03:54;40.10;;;19.47;;
84247;SDS011;74387;44.536;18.530;2023-12-07T04:06:21;46.57;;;19.73;;
84247;SDS011;74387;44.536;18.530;2023-12-07T04:08:47;43.67;;;19.27;;
84247;SDS011;74387;44.536;18.530;2023-12-07T04:11:13;51.10;;;19.23;;
84247;SDS011;74387;44.536;18.530;2023-12-07T04:13:40;46.57;;;20.00;;
84247;SDS011;74387;44.536;18.530;2023-12-07T04:16:07;41.20;;;18.67;;
84247;SDS011;74387;44.536;18.530;2023-12-07T04:18:33;45.07;;;19.00;;
84247;SDS011;74387;44.536;18.530;2023-12-07T04:20:59;43.03;;;18.67;;
84247;SDS011;74387;44.536;18.530;2023-12-07T04:23:25;37.10;;;17.67;;
84247;SDS011;74387;44.536;18.530;2023-12-07T04:25:51;43.60;;;17.67;;
84247;SDS011;74387;44.536;18.530;2023-12-07T04:28:16;36.60;;;16.70;;
84247;SDS011;74387;44.536;18.530;2023-12-07T04:30:42;37.00;;;17.07;;
84247;SDS011;74387;44.536;18.530;2023-12-07T04:33:08;33.83;;;16.53;;
84247;SDS011;74387;44.536;18.530;2023-12-07T04:35:34;33.80;;;17.33;;
84247;SDS011;74387;44.536;18.530;2023-12-07T04:38:00;28.50;;;15.57;;
84247;SDS011;74387;44.536;18.530;2023-12-07T04:40:26;30.80;;;16.40;;
84247;SDS011;74387;44.536;18.530;2023-12-07T04:42:52;34.50;;;15.03;;
84247;SDS011;74387;44.536;18.530;2023-12-07T04:45:17;32.33;;;16.70;;
84247;SDS011;74387;44.536;18.530;2023-12-07T04:47:43;34.73;;;15.50;;
84247;SDS011;74387;44.536;18.530;2023-12-07T04:50:10;30.93;;;16.70;;
84247;SDS011;74387;44.536;18.530;2023-12-07T04:52:36;36.30;;;19.60;;
84247;SDS011;74387;44.536;18.530;2023-12-07T04:55:01;39.47;;;19.37;;
84247;SDS011;74387;44.536;18.530;2023-12-07T04:57:27;40.60;;;20.47;;
84247;SDS011;74387;44.536;18.530;2023-12-07T04:59:53;45.13;;;21.80;;
84247;SDS011;74387;44.536;18.530;2023-12-07T05:02:19;53.40;;;25.73;;
84247;SDS011;74387;44.536;18.530;2023-12-07T05:04:45;58.57;;;28.87;;
84247;SDS011;74387;44.536;18.530;2023-12-07T05:07:11;62.27;;;28.23;;
84247;SDS011;74387;44.536;18.530;2023-12-07T05:09:38;52.07;;;23.93;;
84247;SDS011;74387;44.536;18.530;2023-12-07T05:12:04;43.63;;;21.60;;
84247;SDS011;74387;44.536;18.530;2023-12-07T05:14:31;32.03;;;17.17;;
84247;SDS011;74387;44.536;18.530;2023-12-07T05:16:57;37.30;;;19.20;;
84247;SDS011;74387;44.536;18.530;2023-12-07T05:19:23;33.03;;;17.53;;
84247;SDS011;74387;44.536;18.530;2023-12-07T05:21:49;36.53;;;16.23;;
84247;SDS011;74387;44.536;18.530;2023-12-07T05:24:15;33.40;;;18.67;;
84247;SDS011;74387;44.536;18.530;2023-12-07T05:26:41;33.50;;;18.13;;
84247;SDS011;74387;44.536;18.530;2023-12-07T05:29:09;38.33;;;19.93;;
84247;SDS011;74387;44.536;18.530;2023-12-07T05:31:36;32.47;;;17.47;;
84247;SDS011;74387;44.536;18.530;2023-12-07T05:34:51;30.57;;;17.43;;
84247;SDS011;74387;44.536;18.530;2023-12-07T05:41:05;37.08;;;19.30;;
84247;SDS011;74387;44.536;18.530;2023-12-07T05:43:34;34.93;;;19.37;;
84247;SDS011;74387;44.536;18.530;2023-12-07T05:46:04;37.73;;;19.00;;
84247;SDS011;74387;44.536;18.530;2023-12-07T05:48:37;35.07;;;19.87;;
84247;SDS011;74387;44.536;18.530;2023-12-07T05:51:16;35.10;;;18.83;;
84247;SDS011;74387;44.536;18.530;2023-12-07T05:53:49;34.63;;;17.50;;
84247;SDS011;74387;44.536;18.530;2023-12-07T05:56:21;32.53;;;18.33;;
84247;SDS011;74387;44.536;18.530;2023-12-07T05:58:59;52.43;;;25.77;;
84247;SDS011;74387;44.536;18.530;2023-12-07T06:02:32;51.30;;;27.07;;
84247;SDS011;74387;44.536;18.530;2023-12-07T06:05:11;49.33;;;24.47;;
84247;SDS011;74387;44.536;18.530;2023-12-07T06:07:58;43.97;;;22.30;;
84247;SDS011;74387;44.536;18.530;2023-12-07T06:23:46;42.80;;;21.80;;
84247;SDS011;74387;44.536;18.530;2023-12-07T06:26:23;44.90;;;22.43;;
84247;SDS011;74387;44.536;18.530;2023-12-07T06:28:51;42.33;;;22.15;;
84247;SDS011;74387;44.536;18.530;2023-12-07T06:31:19;38.53;;;21.20;;
84247;SDS011;74387;44.536;18.530;2023-12-07T06:33:49;47.00;;;25.43;;
84247;SDS011;74387;44.536;18.530;2023-12-07T06:40:43;46.22;;;23.42;;
84247;SDS011;74387;44.536;18.530;2023-12-07T07:01:20;62.80;;;27.08;;
84247;SDS011;74387;44.536;18.530;2023-12-07T07:04:14;72.43;;;34.47;;
84247;SDS011;74387;44.536;18.530;2023-12-07T07:10:48;70.57;;;31.00;;
84247;SDS011;74387;44.536;18.530;2023-12-07T07:14:03;62.17;;;30.17;;
84247;SDS011;74387;44.536;18.530;2023-12-07T07:20:20;61.33;;;26.60;;
84247;SDS011;74387;44.536;18.530;2023-12-07T07:32:59;92.43;;;33.40;;
84247;SDS011;74387;44.536;18.530;2023-12-07T07:36:12;91.90;;;33.50;;
84247;SDS011;74387;44.536;18.530;2023-12-07T07:43:08;169.38;;;74.90;;
84247;SDS011;74387;44.536;18.530;2023-12-07T07:49:56;114.57;;;45.30;;
84247;SDS011;74387;44.536;18.530;2023-12-07T07:59:53;114.93;;;48.10;;
84247;SDS011;74387;44.536;18.530;2023-12-07T08:02:20;123.80;;;46.70;;
84247;SDS011;74387;44.536;18.530;2023-12-07T08:04:48;120.23;;;47.33;;
84247;SDS011;74387;44.536;18.530;2023-12-07T08:07:25;108.93;;;47.13;;
84247;SDS011;74387;44.536;18.530;2023-12-07T08:10:36;121.10;;;44.83;;
84247;SDS011;74387;44.536;18.530;2023-12-07T08:13:16;112.37;;;41.77;;
84247;SDS011;74387;44.536;18.530;2023-12-07T08:16:25;117.13;;;43.30;;
84247;SDS011;74387;44.536;18.530;2023-12-07T08:18:55;119.80;;;45.87;;
84247;SDS011;74387;44.536;18.530;2023-12-07T08:21:27;103.57;;;35.93;;
84247;SDS011;74387;44.536;18.530;2023-12-07T08:24:32;108.40;;;39.33;;
84247;SDS011;74387;44.536;18.530;2023-12-07T08:27:07;102.10;;;40.43;;
84247;SDS011;74387;44.536;18.530;2023-12-07T08:29:38;105.73;;;34.97;;
84247;SDS011;74387;44.536;18.530;2023-12-07T08:32:10;97.50;;;36.83;;
84247;SDS011;74387;44.536;18.530;2023-12-07T08:34:46;108.73;;;38.70;;
84247;SDS011;74387;44.536;18.530;2023-12-07T08:37:33;112.43;;;37.20;;
84247;SDS011;74387;44.536;18.530;2023-12-07T08:40:04;112.77;;;42.03;;
84247;SDS011;74387;44.536;18.530;2023-12-07T08:43:02;113.22;;;37.30;;
84247;SDS011;74387;44.536;18.530;2023-12-07T08:49:50;137.53;;;49.50;;
84247;SDS011;74387;44.536;18.530;2023-12-07T08:53:27;119.27;;;49.87;;
84247;SDS011;74387;44.536;18.530;2023-12-07T08:56:48;129.00;;;52.13;;
84247;SDS011;74387;44.536;18.530;2023-12-07T08:59:43;105.25;;;44.55;;
84247;SDS011;74387;44.536;18.530;2023-12-07T09:07:05;109.28;;;41.72;;
84247;SDS011;74387;44.536;18.530;2023-12-07T09:13:04;111.43;;;42.73;;
84247;SDS011;74387;44.536;18.530;2023-12-07T09:16:03;116.03;;;45.23;;
84247;SDS011;74387;44.536;18.530;2023-12-07T09:19:40;103.37;;;44.23;;
84247;SDS011;74387;44.536;18.530;2023-12-07T09:26:55;101.50;;;39.67;;
84247;SDS011;74387;44.536;18.530;2023-12-07T09:29:54;107.30;;;43.60;;
84247;SDS011;74387;44.536;18.530;2023-12-07T09:32:28;113.83;;;48.83;;
84247;SDS011;74387;44.536;18.530;2023-12-07T09:42:08;145.90;;;53.27;;
84247;SDS011;74387;44.536;18.530;2023-12-07T09:52:38;116.07;;;41.90;;
84247;SDS011;74387;44.536;18.530;2023-12-07T09:55:39;102.63;;;36.43;;
84247;SDS011;74387;44.536;18.530;2023-12-07T09:58:55;94.97;;;37.53;;
84247;SDS011;74387;44.536;18.530;2023-12-07T10:09:17;87.63;;;33.83;;
84247;SDS011;74387;44.536;18.530;2023-12-07T10:12:56;111.27;;;41.87;;
84247;SDS011;74387;44.536;18.530;2023-12-07T10:15:41;107.43;;;40.50;;
84247;SDS011;74387;44.536;18.530;2023-12-07T10:18:23;106.50;;;37.93;;
84247;SDS011;74387;44.536;18.530;2023-12-07T10:20:52;107.10;;;41.57;;
84247;SDS011;74387;44.536;18.530;2023-12-07T10:32:28;122.10;;;47.20;;
84247;SDS011;74387;44.536;18.530;2023-12-07T10:35:10;115.90;;;44.43;;
84247;SDS011;74387;44.536;18.530;2023-12-07T10:38:04;103.40;;;42.07;;
84247;SDS011;74387;44.536;18.530;2023-12-07T10:40:42;114.87;;;44.93;;
84247;SDS011;74387;44.536;18.530;2023-12-07T10:43:21;129.30;;;49.87;;
84247;SDS011;74387;44.536;18.530;2023-12-07T10:45:48;114.70;;;47.73;;
84247;SDS011;74387;44.536;18.530;2023-12-07T10:48:30;135.37;;;53.00;;
84247;SDS011;74387;44.536;18.530;2023-12-07T10:51:07;157.53;;;61.93;;
84247;SDS011;74387;44.536;18.530;2023-12-07T10:53:40;176.13;;;64.50;;
84247;SDS011;74387;44.536;18.530;2023-12-07T10:56:14;160.07;;;60.33;;
84247;SDS011;74387;44.536;18.530;2023-12-07T10:58:48;161.30;;;60.53;;
84247;SDS011;74387;44.536;18.530;2023-12-07T11:01:18;157.17;;;59.90;;
84247;SDS011;74387;44.536;18.530;2023-12-07T11:07:41;188.23;;;72.73;;
84247;SDS011;74387;44.536;18.530;2023-12-07T11:10:34;201.73;;;74.13;;
84247;SDS011;74387;44.536;18.530;2023-12-07T11:17:16;220.03;;;75.40;;
84247;SDS011;74387;44.536;18.530;2023-12-07T11:24:17;226.83;;;73.07;;
84247;SDS011;74387;44.536;18.530;2023-12-07T11:26:48;204.67;;;71.00;;
84247;SDS011;74387;44.536;18.530;2023-12-07T11:29:24;198.77;;;65.83;;
84247;SDS011;74387;44.536;18.530;2023-12-07T11:31:56;188.48;;;62.85;;
84247;SDS011;74387;44.536;18.530;2023-12-07T11:34:43;192.23;;;65.37;;
84247;SDS011;74387;44.536;18.530;2023-12-07T11:37:15;186.03;;;68.57;;
84247;SDS011;74387;44.536;18.530;2023-12-07T11:39:45;152.57;;;58.73;;
84247;SDS011;74387;44.536;18.530;2023-12-07T11:42:19;146.43;;;54.73;;
84247;SDS011;74387;44.536;18.530;2023-12-07T11:44:48;142.67;;;52.73;;
84247;SDS011;74387;44.536;18.530;2023-12-07T11:47:19;123.43;;;47.13;;
84247;SDS011;74387;44.536;18.530;2023-12-07T11:49:47;117.82;;;46.83;;
84247;SDS011;74387;44.536;18.530;2023-12-07T11:52:19;92.03;;;39.17;;
84247;SDS011;74387;44.536;18.530;2023-12-07T11:54:55;96.57;;;39.23;;
84247;SDS011;74387;44.536;18.530;2023-12-07T11:57:22;63.93;;;28.47;;
84247;SDS011;74387;44.536;18.530;2023-12-07T12:00:12;61.87;;;28.43;;
84247;SDS011;74387;44.536;18.530;2023-12-07T12:03:01;62.03;;;26.17;;
84247;SDS011;74387;44.536;18.530;2023-12-07T12:05:50;50.60;;;23.50;;
84247;SDS011;74387;44.536;18.530;2023-12-07T12:08:19;37.40;;;18.97;;
84247;SDS011;74387;44.536;18.530;2023-12-07T12:10:46;36.23;;;16.87;;
84247;SDS011;74387;44.536;18.530;2023-12-07T12:13:14;22.08;;;10.88;;
84247;SDS011;74387;44.536;18.530;2023-12-07T12:15:44;21.97;;;12.43;;
84247;SDS011;74387;44.536;18.530;2023-12-07T12:18:21;23.00;;;11.57;;
84247;SDS011;74387;44.536;18.530;2023-12-07T12:20:57;15.73;;;8.70;;
84247;SDS011;74387;44.536;18.530;2023-12-07T12:23:27;16.03;;;9.03;;
84247;SDS011;74387;44.536;18.530;2023-12-07T12:25:54;20.03;;;9.63;;
84247;SDS011;74387;44.536;18.530;2023-12-07T12:28:47;18.13;;;9.43;;
84247;SDS011;74387;44.536;18.530;2023-12-07T12:31:18;23.83;;;12.87;;
84247;SDS011;74387;44.536;18.530;2023-12-07T12:34:16;24.83;;;14.27;;
84247;SDS011;74387;44.536;18.530;2023-12-07T12:36:44;26.47;;;14.57;;
84247;SDS011;74387;44.536;18.530;2023-12-07T12:39:18;34.03;;;18.77;;
84247;SDS011;74387;44.536;18.530;2023-12-07T12:42:08;44.33;;;22.20;;
84247;SDS011;74387;44.536;18.530;2023-12-07T12:44:46;41.67;;;22.33;;
84247;SDS011;74387;44.536;18.530;2023-12-07T12:51:19;52.38;;;27.63;;
84247;SDS011;74387;44.536;18.530;2023-12-07T12:55:07;50.67;;;25.10;;
84247;SDS011;74387;44.536;18.530;2023-12-07T13:04:48;35.03;;;17.58;;
84247;SDS011;74387;44.536;18.530;2023-12-07T13:07:15;31.83;;;16.57;;
84247;SDS011;74387;44.536;18.530;2023-12-07T13:09:53;30.03;;;17.17;;
84247;SDS011;74387;44.536;18.530;2023-12-07T13:12:20;39.23;;;20.33;;
84247;SDS011;74387;44.536;18.530;2023-12-07T13:14:49;42.67;;;21.07;;
84247;SDS011;74387;44.536;18.530;2023-12-07T13:17:19;39.13;;;21.70;;
84247;SDS011;74387;44.536;18.530;2023-12-07T13:19:48;40.10;;;21.50;;
84247;SDS011;74387;44.536;18.530;2023-12-07T13:22:14;35.83;;;21.40;;
84247;SDS011;74387;44.536;18.530;2023-12-07T13:24:40;37.90;;;21.37;;
84247;SDS011;74387;44.536;18.530;2023-12-07T13:27:08;30.43;;;18.73;;
84247;SDS011;74387;44.536;18.530;2023-12-07T13:29:38;37.47;;;21.37;;
84247;SDS011;74387;44.536;18.530;2023-12-07T13:38:06;42.93;;;22.37;;
84247;SDS011;74387;44.536;18.530;2023-12-07T13:40:40;38.03;;;22.23;;
84247;SDS011;74387;44.536;18.530;2023-12-07T13:43:10;37.00;;;20.93;;
84247;SDS011;74387;44.536;18.530;2023-12-07T13:45:39;39.93;;;21.27;;
84247;SDS011;74387;44.536;18.530;2023-12-07T13:48:06;38.80;;;21.37;;
84247;SDS011;74387;44.536;18.530;2023-12-07T13:57:07;35.07;;;21.17;;
84247;SDS011;74387;44.536;18.530;2023-12-07T13:59:35;35.47;;;20.00;;
84247;SDS011;74387;44.536;18.530;2023-12-07T14:02:06;35.23;;;18.93;;
84247;SDS011;74387;44.536;18.530;2023-12-07T14:04:49;33.80;;;19.23;;
84247;SDS011;74387;44.536;18.530;2023-12-07T14:08:20;35.50;;;18.37;;
84247;SDS011;74387;44.536;18.530;2023-12-07T14:10:54;38.10;;;19.90;;
84247;SDS011;74387;44.536;18.530;2023-12-07T14:13:20;35.17;;;18.03;;
84247;SDS011;74387;44.536;18.530;2023-12-07T14:18:46;29.10;;;15.83;;
84247;SDS011;74387;44.536;18.530;2023-12-07T14:25:07;26.03;;;14.33;;
84247;SDS011;74387;44.536;18.530;2023-12-07T14:27:52;25.80;;;15.50;;
84247;SDS011;74387;44.536;18.530;2023-12-07T14:44:42;29.47;;;15.57;;
84247;SDS011;74387;44.536;18.530;2023-12-07T14:48:24;26.30;;;13.57;;
84247;SDS011;74387;44.536;18.530;2023-12-07T14:54:22;32.70;;;19.17;;
84247;SDS011;74387;44.536;18.530;2023-12-07T14:56:48;19.53;;;12.00;;
84247;SDS011;74387;44.536;18.530;2023-12-07T14:59:38;37.37;;;18.43;;
84247;SDS011;74387;44.536;18.530;2023-12-07T15:02:14;24.63;;;13.67;;
84247;SDS011;74387;44.536;18.530;2023-12-07T15:04:53;25.17;;;15.67;;
84247;SDS011;74387;44.536;18.530;2023-12-07T15:07:19;29.10;;;13.60;;
84247;SDS011;74387;44.536;18.530;2023-12-07T15:09:49;34.70;;;15.83;;
84247;SDS011;74387;44.536;18.530;2023-12-07T15:12:26;44.80;;;19.87;;
84247;SDS011;74387;44.536;18.530;2023-12-07T15:18:02;45.13;;;20.73;;
84247;SDS011;74387;44.536;18.530;2023-12-07T15:28:24;32.40;;;16.33;;
84247;SDS011;74387;44.536;18.530;2023-12-07T15:38:37;36.03;;;17.03;;
84247;SDS011;74387;44.536;18.530;2023-12-07T15:44:55;36.05;;;17.38;;
84247;SDS011;74387;44.536;18.530;2023-12-07T15:51:31;33.27;;;15.77;;
84247;SDS011;74387;44.536;18.530;2023-12-07T16:00:15;59.97;;;26.77;;
84247;SDS011;74387;44.536;18.530;2023-12-07T16:02:43;52.70;;;25.37;;
84247;SDS011;74387;44.536;18.530;2023-12-07T16:05:12;31.70;;;17.80;;
84247;SDS011;74387;44.536;18.530;2023-12-07T16:19:15;49.23;;;23.80;;
84247;SDS011;74387;44.536;18.530;2023-12-07T16:22:20;48.53;;;22.50;;
84247;SDS011;74387;44.536;18.530;2023-12-07T16:24:55;73.67;;;31.47;;
84247;SDS011;74387;44.536;18.530;2023-12-07T16:34:42;82.80;;;36.83;;
84247;SDS011;74387;44.536;18.530;2023-12-07T16:43:55;85.60;;;38.97;;
84247;SDS011;74387;44.536;18.530;2023-12-07T16:46:26;81.30;;;39.60;;
84247;SDS011;74387;44.536;18.530;2023-12-07T16:48:56;90.50;;;44.43;;
84247;SDS011;74387;44.536;18.530;2023-12-07T16:51:24;105.57;;;51.88;;
84247;SDS011;74387;44.536;18.530;2023-12-07T16:53:52;125.83;;;57.80;;
84247;SDS011;74387;44.536;18.530;2023-12-07T16:56:24;126.10;;;58.07;;
84247;SDS011;74387;44.536;18.530;2023-12-07T16:58:55;119.47;;;57.00;;
84247;SDS011;74387;44.536;18.530;2023-12-07T17:01:22;162.27;;;77.10;;
84247;SDS011;74387;44.536;18.530;2023-12-07T17:03:50;143.30;;;67.67;;
84247;SDS011;74387;44.536;18.530;2023-12-07T17:06:16;143.80;;;67.50;;
84247;SDS011;74387;44.536;18.530;2023-12-07T17:11:13;105.30;;;50.20;;
84247;SDS011;74387;44.536;18.530;2023-12-07T17:13:39;81.33;;;38.77;;
84247;SDS011;74387;44.536;18.530;2023-12-07T17:16:06;62.83;;;31.80;;
84247;SDS011;74387;44.536;18.530;2023-12-07T17:18:34;59.22;;;31.38;;
84247;SDS011;74387;44.536;18.530;2023-12-07T17:21:01;65.10;;;35.37;;
84247;SDS011;74387;44.536;18.530;2023-12-07T17:23:29;77.10;;;40.20;;
84247;SDS011;74387;44.536;18.530;2023-12-07T17:25:55;86.10;;;46.17;;
84247;SDS011;74387;44.536;18.530;2023-12-07T17:28:23;106.65;;;54.03;;
84247;SDS011;74387;44.536;18.530;2023-12-07T17:30:51;111.43;;;53.72;;
84247;SDS011;74387;44.536;18.530;2023-12-07T17:33:17;110.83;;;53.30;;
84247;SDS011;74387;44.536;18.530;2023-12-07T17:35:42;132.07;;;59.47;;
84247;SDS011;74387;44.536;18.530;2023-12-07T17:38:09;125.53;;;57.80;;
84247;SDS011;74387;44.536;18.530;2023-12-07T17:40:35;128.93;;;58.27;;
84247;SDS011;74387;44.536;18.530;2023-12-07T17:43:02;132.70;;;63.43;;
84247;SDS011;74387;44.536;18.530;2023-12-07T17:45:28;131.33;;;61.37;;
84247;SDS011;74387;44.536;18.530;2023-12-07T17:47:53;106.23;;;50.73;;
84247;SDS011;74387;44.536;18.530;2023-12-07T17:50:19;92.27;;;43.83;;
84247;SDS011;74387;44.536;18.530;2023-12-07T17:52:48;102.03;;;46.63;;
84247;SDS011;74387;44.536;18.530;2023-12-07T17:55:15;82.13;;;39.37;;
84247;SDS011;74387;44.536;18.530;2023-12-07T17:57:41;80.20;;;37.30;;
84247;SDS011;74387;44.536;18.530;2023-12-07T18:00:11;88.10;;;36.27;;
84247;SDS011;74387;44.536;18.530;2023-12-07T18:02:37;93.67;;;40.27;;
84247;SDS011;74387;44.536;18.530;2023-12-07T18:05:06;91.77;;;37.67;;
84247;SDS011;74387;44.536;18.530;2023-12-07T18:07:33;87.00;;;36.87;;
84247;SDS011;74387;44.536;18.530;2023-12-07T18:10:03;58.53;;;25.83;;
84247;SDS011;74387;44.536;18.530;2023-12-07T18:12:35;62.37;;;28.37;;
84247;SDS011;74387;44.536;18.530;2023-12-07T18:15:25;46.57;;;22.87;;
84247;SDS011;74387;44.536;18.530;2023-12-07T18:17:51;55.23;;;24.87;;
84247;SDS011;74387;44.536;18.530;2023-12-07T18:20:20;55.65;;;25.38;;
84247;SDS011;74387;44.536;18.530;2023-12-07T18:22:48;70.35;;;31.00;;
84247;SDS011;74387;44.536;18.530;2023-12-07T18:25:14;89.97;;;41.20;;
84247;SDS011;74387;44.536;18.530;2023-12-07T18:27:44;83.23;;;36.53;;
84247;SDS011;74387;44.536;18.530;2023-12-07T18:30:39;93.93;;;41.00;;
84247;SDS011;74387;44.536;18.530;2023-12-07T18:33:06;98.93;;;46.83;;
84247;SDS011;74387;44.536;18.530;2023-12-07T18:35:31;97.17;;;46.63;;
84247;SDS011;74387;44.536;18.530;2023-12-07T18:37:57;89.20;;;43.30;;
84247;SDS011;74387;44.536;18.530;2023-12-07T18:40:26;81.80;;;40.80;;
84247;SDS011;74387;44.536;18.530;2023-12-07T18:42:54;100.32;;;46.80;;
84247;SDS011;74387;44.536;18.530;2023-12-07T18:45:22;121.75;;;58.25;;
84247;SDS011;74387;44.536;18.530;2023-12-07T18:47:48;140.90;;;62.83;;